Time;durP1;ratioP1;P1;durP2;ratioP2;P2;SDS_P1;SDS_P2;PMS_P1;PMS_P2;Temp;Humidity;BMP_temperature;BMP_pressure;BME280_temperature;BME280_humidity;BME280_pressure;Samples;Min_cycle;Max_cycle;Signal;HPM_P1;HPM_P2
2023/04/18 00:02:19;;;;;;;16.35;10.40;;;;;;;;;;5025925;28;20710;-75
2023/04/18 00:05:05;;;;;;;14.93;10.48;;;;;;;;;;5029783;28;20052;-75
2023/04/18 00:07:51;;;;;;;15.45;10.00;;;;;;;;;;5025015;28;20047;-73
2023/04/18 00:10:36;;;;;;;15.40;9.95;;;;;;;;;;5029247;28;20048;-71
2023/04/18 00:13:22;;;;;;;15.23;10.65;;;;;;;;;;5025479;28;20033;-72
2023/04/18 00:16:07;;;;;;;15.15;10.27;;;;;;;;;;5025124;28;20032;-72
2023/04/18 00:18:53;;;;;;;16.85;11.00;;;;;;;;;;5028578;28;20456;-73
2023/04/18 00:21:43;;;;;;;14.98;9.90;;;;;;;;;;5024090;28;20472;-72
2023/04/18 00:24:28;;;;;;;17.27;10.80;;;;;;;;;;5026679;28;20060;-74
2023/04/18 00:27:13;;;;;;;16.10;10.40;;;;;;;;;;5012694;28;20041;-74
2023/04/18 00:30:00;;;;;;;19.80;11.02;;;;;;;;;;5027076;28;20038;-72
2023/04/18 00:32:45;;;;;;;11.95;8.85;;;;;;;;;;5014564;28;20029;-72
2023/04/18 00:35:30;;;;;;;16.90;11.68;;;;;;;;;;5025194;28;20365;-71
2023/04/18 00:38:16;;;;;;;16.50;10.50;;;;;;;;;;5030048;28;20021;-72
2023/04/18 00:41:01;;;;;;;13.27;8.45;;;;;;;;;;5019120;28;20029;-79
2023/04/18 00:43:46;;;;;;;14.90;10.10;;;;;;;;;;5026559;28;20041;-73
2023/04/18 00:46:31;;;;;;;14.45;9.38;;;;;;;;;;5027583;28;20040;-73
2023/04/18 00:49:17;;;;;;;16.95;9.82;;;;;;;;;;5022807;28;20037;-72
2023/04/18 00:52:02;;;;;;;14.52;9.65;;;;;;;;;;5023905;28;20075;-74
2023/04/18 00:54:47;;;;;;;14.63;9.98;;;;;;;;;;5022790;28;20025;-74
2023/04/18 00:57:33;;;;;;;14.05;9.98;;;;;;;;;;5011820;28;20357;-74
2023/04/18 01:00:18;;;;;;;15.40;9.63;;;;;;;;;;5028536;28;20032;-77
2023/04/18 01:03:03;;;;;;;15.95;10.32;;;;;;;;;;5022829;28;20481;-71
2023/04/18 01:05:49;;;;;;;17.85;11.18;;;;;;;;;;5025164;28;20060;-72
2023/04/18 01:08:35;;;;;;;14.45;9.45;;;;;;;;;;5029056;28;20052;-71
2023/04/18 01:11:20;;;;;;;12.77;9.13;;;;;;;;;;5028140;28;20056;-70
2023/04/18 01:14:06;;;;;;;13.32;8.95;;;;;;;;;;5013447;28;20033;-71
2023/04/18 01:16:52;;;;;;;16.13;10.13;;;;;;;;;;5011740;28;20030;-72
2023/04/18 01:19:38;;;;;;;14.25;9.60;;;;;;;;;;5023051;28;20036;-71
2023/04/18 01:22:23;;;;;;;14.32;9.60;;;;;;;;;;5016666;28;20032;-78
2023/04/18 01:25:08;;;;;;;15.45;10.77;;;;;;;;;;5016473;28;20057;-78
2023/04/18 01:27:54;;;;;;;15.20;10.65;;;;;;;;;;5015301;28;20028;-79
2023/04/18 01:30:39;;;;;;;14.27;10.23;;;;;;;;;;5026667;28;20477;-79
2023/04/18 01:33:24;;;;;;;15.05;9.63;;;;;;;;;;5011433;28;20029;-78
2023/04/18 01:36:10;;;;;;;15.50;10.50;;;;;;;;;;5013462;28;20048;-73
2023/04/18 01:38:55;;;;;;;13.15;9.18;;;;;;;;;;5030136;28;21654;-80
2023/04/18 01:41:40;;;;;;;13.77;8.98;;;;;;;;;;5030250;28;20029;-77
2023/04/18 01:44:26;;;;;;;14.60;9.35;;;;;;;;;;5013726;28;20594;-77
2023/04/18 01:47:11;;;;;;;14.77;9.95;;;;;;;;;;5012023;28;20078;-78
2023/04/18 01:49:56;;;;;;;17.60;10.68;;;;;;;;;;5029386;28;20033;-78
2023/04/18 01:52:41;;;;;;;14.48;9.30;;;;;;;;;;5007684;28;20554;-78
2023/04/18 01:55:27;;;;;;;13.63;9.07;;;;;;;;;;5011500;28;20034;-75
2023/04/18 01:58:12;;;;;;;12.23;8.40;;;;;;;;;;5020447;28;20480;-74
2023/04/18 02:00:57;;;;;;;11.73;8.02;;;;;;;;;;5009610;28;20100;-73
2023/04/18 02:03:42;;;;;;;15.60;10.18;;;;;;;;;;5025212;28;20391;-75
2023/04/18 02:06:27;;;;;;;13.48;8.57;;;;;;;;;;5023291;28;20064;-75
2023/04/18 02:09:13;;;;;;;13.98;9.45;;;;;;;;;;5032759;28;20036;-72
2023/04/18 02:12:00;;;;;;;12.38;8.73;;;;;;;;;;5029434;28;20018;-74
2023/04/18 02:14:49;;;;;;;17.45;9.65;;;;;;;;;;5016895;28;20474;-75
2023/04/18 02:17:35;;;;;;;13.70;8.20;;;;;;;;;;5029690;28;20021;-73
2023/04/18 02:20:20;;;;;;;14.45;8.63;;;;;;;;;;5032017;28;20609;-72
2023/04/18 02:23:06;;;;;;;13.90;8.45;;;;;;;;;;5028844;28;20021;-76
2023/04/18 02:25:52;;;;;;;13.60;9.02;;;;;;;;;;5032002;28;20144;-74
2023/04/18 02:28:37;;;;;;;13.40;8.48;;;;;;;;;;5024627;28;20049;-73
2023/04/18 02:31:23;;;;;;;14.20;8.93;;;;;;;;;;5033129;28;20091;-78
2023/04/18 02:34:08;;;;;;;14.00;9.45;;;;;;;;;;5034677;28;20040;-72
2023/04/18 02:36:53;;;;;;;13.80;9.05;;;;;;;;;;5014503;28;20057;-73
2023/04/18 02:39:38;;;;;;;13.15;8.82;;;;;;;;;;5020508;28;20032;-72
2023/04/18 02:42:24;;;;;;;18.08;9.45;;;;;;;;;;5028926;28;20365;-72
2023/04/18 02:45:09;;;;;;;13.95;9.00;;;;;;;;;;5025962;28;20029;-72
2023/04/18 02:47:54;;;;;;;15.27;9.07;;;;;;;;;;5019820;28;20049;-72
2023/04/18 02:50:39;;;;;;;15.52;9.52;;;;;;;;;;5013749;28;20034;-72
2023/04/18 02:53:25;;;;;;;14.60;8.85;;;;;;;;;;5030905;28;20029;-74
2023/04/18 02:56:10;;;;;;;13.50;8.82;;;;;;;;;;5029855;28;20029;-73
2023/04/18 02:58:55;;;;;;;15.98;9.50;;;;;;;;;;5028619;28;20501;-74
2023/04/18 03:01:41;;;;;;;14.68;9.05;;;;;;;;;;5031041;28;20055;-75
2023/04/18 03:04:26;;;;;;;13.48;8.95;;;;;;;;;;5011698;28;20025;-73
2023/04/18 03:07:11;;;;;;;13.13;8.18;;;;;;;;;;5028791;28;20036;-77
2023/04/18 03:09:56;;;;;;;12.82;8.38;;;;;;;;;;5030633;28;20480;-74
2023/04/18 03:12:42;;;;;;;13.73;8.43;;;;;;;;;;5028781;28;20081;-74
2023/04/18 03:15:27;;;;;;;13.52;8.90;;;;;;;;;;5028521;28;20984;-72
2023/04/18 03:18:12;;;;;;;12.30;8.68;;;;;;;;;;5030558;28;20018;-73
2023/04/18 03:20:57;;;;;;;13.52;9.40;;;;;;;;;;5030996;28;20028;-73
2023/04/18 03:23:43;;;;;;;12.18;7.82;;;;;;;;;;5028468;28;20380;-73
2023/04/18 03:26:28;;;;;;;13.52;9.02;;;;;;;;;;5028029;28;20049;-72
2023/04/18 03:29:13;;;;;;;12.48;7.82;;;;;;;;;;5031064;28;20037;-78
2023/04/18 03:31:58;;;;;;;14.38;9.43;;;;;;;;;;5027625;28;20055;-78
2023/04/18 03:34:44;;;;;;;14.50;9.27;;;;;;;;;;5029210;28;20021;-77
2023/04/18 03:37:29;;;;;;;14.00;8.68;;;;;;;;;;5032010;28;20050;-78
2023/04/18 03:40:14;;;;;;;13.82;8.98;;;;;;;;;;5021248;28;20056;-78
2023/04/18 03:43:00;;;;;;;16.90;8.80;;;;;;;;;;5025575;28;20100;-79
2023/04/18 03:45:46;;;;;;;12.75;8.88;;;;;;;;;;5015396;28;20025;-73
2023/04/18 03:48:34;;;;;;;14.65;9.02;;;;;;;;;;5034402;28;20041;-74
2023/04/18 03:51:19;;;;;;;12.25;8.93;;;;;;;;;;5008811;28;20112;-74
2023/04/18 03:54:05;;;;;;;14.43;9.73;;;;;;;;;;5027531;28;20495;-73
2023/04/18 03:56:50;;;;;;;15.70;9.23;;;;;;;;;;5026191;28;20941;-73
2023/04/18 03:59:35;;;;;;;16.10;9.07;;;;;;;;;;5032470;28;20024;-74
2023/04/18 04:02:20;;;;;;;12.60;8.35;;;;;;;;;;5028774;28;20052;-72
2023/04/18 04:05:06;;;;;;;12.15;8.55;;;;;;;;;;5032316;28;20031;-73
2023/04/18 04:07:51;;;;;;;15.70;11.00;;;;;;;;;;5008922;28;20443;-79
2023/04/18 04:10:36;;;;;;;14.50;9.13;;;;;;;;;;5027513;28;20065;-80
2023/04/18 04:13:21;;;;;;;13.63;9.57;;;;;;;;;;5033846;28;20373;-79
2023/04/18 04:16:07;;;;;;;16.05;10.25;;;;;;;;;;5018757;28;20018;-78
2023/04/18 04:18:52;;;;;;;14.10;9.02;;;;;;;;;;5026333;28;20021;-79
2023/04/18 04:21:37;;;;;;;14.77;9.57;;;;;;;;;;5026389;28;20022;-74
2023/04/18 04:24:23;;;;;;;13.98;8.30;;;;;;;;;;5012060;28;20049;-73
2023/04/18 04:27:09;;;;;;;14.15;9.05;;;;;;;;;;5030631;28;20053;-72
2023/04/18 04:29:55;;;;;;;14.43;9.23;;;;;;;;;;5028564;28;20067;-73
2023/04/18 04:32:40;;;;;;;15.40;8.18;;;;;;;;;;5041574;28;20021;-74
2023/04/18 04:35:25;;;;;;;15.27;9.55;;;;;;;;;;5029569;28;20279;-73
2023/04/18 04:38:11;;;;;;;13.65;9.10;;;;;;;;;;5011488;28;20045;-73
2023/04/18 04:40:57;;;;;;;15.73;9.15;;;;;;;;;;5028675;28;20028;-72
2023/04/18 04:43:42;;;;;;;16.33;9.25;;;;;;;;;;5017069;28;20026;-74
2023/04/18 04:46:29;;;;;;;14.50;9.27;;;;;;;;;;5025940;28;20029;-73
2023/04/18 04:49:14;;;;;;;14.25;8.52;;;;;;;;;;5044896;28;20043;-73
2023/04/18 04:52:01;;;;;;;14.15;9.68;;;;;;;;;;5032394;28;20382;-73
2023/04/18 04:54:47;;;;;;;13.05;8.68;;;;;;;;;;5028242;28;20083;-74
2023/04/18 04:57:32;;;;;;;14.18;8.88;;;;;;;;;;5014681;28;20165;-73
2023/04/18 05:00:20;;;;;;;15.93;9.38;;;;;;;;;;5022228;28;20053;-74
2023/04/18 05:03:06;;;;;;;14.55;9.10;;;;;;;;;;5019895;28;20022;-78
2023/04/18 05:05:52;;;;;;;13.63;9.18;;;;;;;;;;5034583;28;20041;-77
2023/04/18 05:08:37;;;;;;;14.95;9.73;;;;;;;;;;5031961;28;20037;-77
2023/04/18 05:11:22;;;;;;;15.02;9.45;;;;;;;;;;5015377;28;20065;-79
2023/04/18 05:14:08;;;;;;;14.32;9.27;;;;;;;;;;5042023;28;20051;-79
2023/04/18 05:16:54;;;;;;;12.80;8.88;;;;;;;;;;5016861;28;20029;-72
2023/04/18 05:19:39;;;;;;;15.73;9.73;;;;;;;;;;5048003;28;20028;-72
2023/04/18 05:22:25;;;;;;;14.23;9.25;;;;;;;;;;5034212;28;20032;-72
2023/04/18 05:25:11;;;;;;;14.05;9.45;;;;;;;;;;5047203;28;20056;-71
2023/04/18 05:27:56;;;;;;;14.38;10.10;;;;;;;;;;5015795;28;20029;-71
2023/04/18 05:30:41;;;;;;;16.55;10.23;;;;;;;;;;5037955;28;20099;-73
2023/04/18 05:33:27;;;;;;;16.70;10.80;;;;;;;;;;5042416;28;20625;-72
2023/04/18 05:36:12;;;;;;;14.77;9.88;;;;;;;;;;5036675;28;20051;-71
2023/04/18 05:38:58;;;;;;;15.43;8.70;;;;;;;;;;5016731;28;20381;-73
2023/04/18 05:41:43;;;;;;;13.32;9.35;;;;;;;;;;5018688;28;20152;-73
2023/04/18 05:44:29;;;;;;;15.80;9.90;;;;;;;;;;5028222;28;20076;-73
2023/04/18 05:47:14;;;;;;;15.45;9.43;;;;;;;;;;5027314;28;20029;-73
2023/04/18 05:49:59;;;;;;;19.13;10.13;;;;;;;;;;5029334;28;20033;-74
2023/04/18 05:52:45;;;;;;;18.40;9.50;;;;;;;;;;5034387;28;20471;-74
2023/04/18 05:55:30;;;;;;;14.98;10.52;;;;;;;;;;5041660;28;20033;-74
2023/04/18 05:58:15;;;;;;;14.90;10.10;;;;;;;;;;5018513;28;20022;-73
2023/04/18 06:01:00;;;;;;;14.45;9.52;;;;;;;;;;5025993;28;21555;-74
2023/04/18 06:03:46;;;;;;;16.45;9.60;;;;;;;;;;5024575;28;20096;-73
2023/04/18 06:06:31;;;;;;;13.18;9.52;;;;;;;;;;5031285;28;20091;-74
2023/04/18 06:09:17;;;;;;;15.98;9.63;;;;;;;;;;5037958;28;20033;-76
2023/04/18 06:12:02;;;;;;;17.48;9.85;;;;;;;;;;5035135;28;20468;-71
2023/04/18 06:14:48;;;;;;;16.98;10.15;;;;;;;;;;5025763;28;20496;-72
2023/04/18 06:17:33;;;;;;;16.08;9.90;;;;;;;;;;5028090;28;20025;-73
2023/04/18 06:20:19;;;;;;;15.88;11.60;;;;;;;;;;5029108;28;20024;-73
2023/04/18 06:23:04;;;;;;;21.17;10.75;;;;;;;;;;5029330;28;20094;-72
2023/04/18 06:25:50;;;;;;;18.67;10.57;;;;;;;;;;5026048;28;20156;-72
2023/04/18 06:28:35;;;;;;;16.23;10.50;;;;;;;;;;5029568;28;20049;-72
2023/04/18 06:31:20;;;;;;;17.75;10.73;;;;;;;;;;5027125;28;20038;-73
2023/04/18 06:34:05;;;;;;;17.20;11.18;;;;;;;;;;5027514;28;20568;-73
2023/04/18 06:36:51;;;;;;;15.65;10.40;;;;;;;;;;5025737;28;20021;-74
2023/04/18 06:39:36;;;;;;;17.08;10.25;;;;;;;;;;5024231;28;20037;-72
2023/04/18 06:42:21;;;;;;;16.30;10.63;;;;;;;;;;5025040;28;20026;-72
2023/04/18 06:45:09;;;;;;;17.75;9.60;;;;;;;;;;5037504;28;20381;-73
2023/04/18 06:47:54;;;;;;;15.85;10.05;;;;;;;;;;5018910;28;20033;-77
2023/04/18 06:50:39;;;;;;;14.90;9.73;;;;;;;;;;5014734;28;20040;-70
2023/04/18 06:53:25;;;;;;;16.00;9.98;;;;;;;;;;5030744;28;20029;-79
2023/04/18 06:56:10;;;;;;;15.10;9.98;;;;;;;;;;5027775;28;20025;-77
2023/04/18 06:58:55;;;;;;;15.73;10.48;;;;;;;;;;5029656;28;20032;-78
2023/04/18 07:01:41;;;;;;;18.33;9.40;;;;;;;;;;5040692;28;20151;-79
2023/04/18 07:04:26;;;;;;;16.95;9.77;;;;;;;;;;5021990;28;20064;-78
2023/04/18 07:07:11;;;;;;;15.82;9.55;;;;;;;;;;5025932;28;20025;-72
2023/04/18 07:09:56;;;;;;;16.45;10.40;;;;;;;;;;5022202;28;20504;-71
2023/04/18 07:12:41;;;;;;;18.98;10.43;;;;;;;;;;5025744;28;20033;-73
2023/04/18 07:15:27;;;;;;;13.90;9.82;;;;;;;;;;5028035;28;20041;-73
2023/04/18 07:18:12;;;;;;;17.17;10.75;;;;;;;;;;5012779;28;20025;-73
2023/04/18 07:20:57;;;;;;;15.90;9.75;;;;;;;;;;5033267;28;20025;-71
2023/04/18 07:23:42;;;;;;;13.50;9.70;;;;;;;;;;5028283;28;20104;-74
2023/04/18 07:26:28;;;;;;;16.15;10.32;;;;;;;;;;5027617;28;20184;-76
2023/04/18 07:29:13;;;;;;;17.30;9.82;;;;;;;;;;5027899;28;20040;-72
2023/04/18 07:31:58;;;;;;;16.52;11.57;;;;;;;;;;5025172;28;20473;-73
2023/04/18 07:34:43;;;;;;;16.10;10.40;;;;;;;;;;5026522;28;20080;-73
2023/04/18 07:37:29;;;;;;;16.40;11.23;;;;;;;;;;5020837;28;20025;-73
2023/04/18 07:40:15;;;;;;;13.32;8.90;;;;;;;;;;5018959;28;20029;-73
2023/04/18 07:43:00;;;;;;;15.55;9.75;;;;;;;;;;5037282;28;20506;-72
2023/04/18 07:45:45;;;;;;;18.88;10.15;;;;;;;;;;5017280;28;20016;-74
2023/04/18 07:48:31;;;;;;;17.25;9.82;;;;;;;;;;5033939;28;20035;-73
2023/04/18 07:51:16;;;;;;;15.15;10.05;;;;;;;;;;5008853;28;20021;-71
2023/04/18 07:54:01;;;;;;;17.38;10.23;;;;;;;;;;5024213;28;20121;-72
2023/04/18 07:56:47;;;;;;;15.85;10.93;;;;;;;;;;5029068;28;20405;-72
2023/04/18 07:59:32;;;;;;;16.45;10.27;;;;;;;;;;5020189;28;20021;-73
2023/04/18 08:02:17;;;;;;;16.17;10.23;;;;;;;;;;5024802;28;20648;-79
2023/04/18 08:05:02;;;;;;;22.85;9.93;;;;;;;;;;5027130;28;20052;-79
2023/04/18 08:07:48;;;;;;;14.80;10.18;;;;;;;;;;5025546;28;20025;-79
2023/04/18 08:10:33;;;;;;;17.65;10.38;;;;;;;;;;5026042;28;20486;-78
2023/04/18 08:13:18;;;;;;;16.50;10.90;;;;;;;;;;5030843;28;20034;-77
2023/04/18 08:16:04;;;;;;;18.08;8.77;;;;;;;;;;5048518;28;20174;-76
2023/04/18 08:18:49;;;;;;;17.90;10.88;;;;;;;;;;5025844;28;20021;-78
2023/04/18 08:21:34;;;;;;;15.27;9.95;;;;;;;;;;5029348;28;20036;-73
2023/04/18 08:24:20;;;;;;;14.82;9.93;;;;;;;;;;5027131;28;20689;-78
2023/04/18 08:27:05;;;;;;;17.67;10.70;;;;;;;;;;5043335;28;20254;-78
2023/04/18 08:29:50;;;;;;;14.43;9.98;;;;;;;;;;5013057;28;20033;-77
2023/04/18 08:32:35;;;;;;;13.63;10.13;;;;;;;;;;5027801;28;20040;-78
2023/04/18 08:35:21;;;;;;;16.67;9.90;;;;;;;;;;5018898;28;20037;-77
2023/04/18 08:38:06;;;;;;;16.55;11.30;;;;;;;;;;5026228;28;20413;-72
2023/04/18 08:40:51;;;;;;;16.40;10.52;;;;;;;;;;5033547;28;20037;-76
2023/04/18 08:43:37;;;;;;;17.40;10.27;;;;;;;;;;5024431;28;20108;-74
2023/04/18 08:46:22;;;;;;;15.95;10.45;;;;;;;;;;5007468;28;20380;-71
2023/04/18 08:49:07;;;;;;;16.73;9.95;;;;;;;;;;5020499;28;20097;-71
2023/04/18 08:51:53;;;;;;;16.10;9.68;;;;;;;;;;5038647;28;20056;-72
2023/04/18 08:54:42;;;;;;;16.98;9.93;;;;;;;;;;5006340;28;20415;-71
2023/04/18 08:57:29;;;;;;;14.93;9.98;;;;;;;;;;5037483;28;20037;-72
2023/04/18 09:00:16;;;;;;;15.93;10.57;;;;;;;;;;5024835;28;20025;-72
2023/04/18 09:03:02;;;;;;;15.50;10.27;;;;;;;;;;5024908;28;20111;-73
2023/04/18 09:06:05;;;;;;;13.63;9.80;;;;;;;;;;5018663;28;20033;-71
2023/04/18 09:08:56;;;;;;;14.50;10.30;;;;;;;;;;5024139;28;20037;-72
2023/04/18 09:11:44;;;;;;;19.13;10.45;;;;;;;;;;5037720;28;20602;-73
2023/04/18 09:14:31;;;;;;;16.58;10.45;;;;;;;;;;5019182;28;20431;-72
2023/04/18 09:17:36;;;;;;;16.88;10.07;;;;;;;;;;5025136;28;20032;-73
2023/04/18 09:20:39;;;;;;;14.52;10.55;;;;;;;;;;5039858;28;20090;-71
2023/04/18 09:23:25;;;;;;;21.95;12.95;;;;;;;;;;5027144;28;20025;-71
2023/04/18 09:26:10;;;;;;;15.93;10.45;;;;;;;;;;5029202;28;20121;-70
2023/04/18 09:28:55;;;;;;;15.57;9.90;;;;;;;;;;5025665;28;20466;-72
2023/04/18 09:31:53;;;;;;;15.88;9.43;;;;;;;;;;5028945;28;20032;-70
2023/04/18 09:34:40;;;;;;;15.02;9.88;;;;;;;;;;5042144;28;20033;-70
2023/04/18 09:37:26;;;;;;;15.48;10.30;;;;;;;;;;5033308;28;20021;-73
2023/04/18 09:40:16;;;;;;;15.00;10.30;;;;;;;;;;5029866;28;20072;-73
2023/04/18 09:43:16;;;;;;;15.90;10.25;;;;;;;;;;5025629;28;20033;-71
2023/04/18 09:46:02;;;;;;;16.50;11.13;;;;;;;;;;5024330;28;20065;-71
2023/04/18 09:48:47;;;;;;;16.95;9.88;;;;;;;;;;5018465;28;20104;-71
2023/04/18 09:51:33;;;;;;;15.77;11.07;;;;;;;;;;5031652;28;20033;-72
2023/04/18 09:54:19;;;;;;;14.60;10.80;;;;;;;;;;5015970;28;20049;-79
2023/04/18 09:57:06;;;;;;;15.48;10.93;;;;;;;;;;5015447;28;20022;-82
2023/04/18 09:59:56;;;;;;;14.27;10.68;;;;;;;;;;5018775;28;20079;-80
2023/04/18 10:02:49;;;;;;;17.10;12.30;;;;;;;;;;5039044;28;20470;-81
2023/04/18 10:05:35;;;;;;;18.10;9.95;;;;;;;;;;5023672;28;20036;-81
2023/04/18 10:08:21;;;;;;;15.23;10.63;;;;;;;;;;5039561;28;20017;-80
2023/04/18 10:11:06;;;;;;;13.23;9.60;;;;;;;;;;5029977;28;20037;-71
2023/04/18 10:13:54;;;;;;;16.80;10.70;;;;;;;;;;5012898;28;20029;-83
2023/04/18 10:16:41;;;;;;;12.95;9.55;;;;;;;;;;5035743;28;20032;-80
2023/04/18 10:19:27;;;;;;;14.32;9.13;;;;;;;;;;5036065;28;20541;-80
2023/04/18 10:22:12;;;;;;;15.32;10.18;;;;;;;;;;5015536;28;20040;-80
2023/04/18 10:24:57;;;;;;;14.18;9.40;;;;;;;;;;5023489;28;20092;-78
2023/04/18 10:27:59;;;;;;;14.00;9.73;;;;;;;;;;5029606;28;20049;-77
2023/04/18 10:30:45;;;;;;;14.95;10.20;;;;;;;;;;5029288;28;20037;-71
2023/04/18 10:33:37;;;;;;;12.48;8.85;;;;;;;;;;5028259;28;20025;-74
2023/04/18 10:36:23;;;;;;;12.43;8.75;;;;;;;;;;5024307;28;20044;-72
2023/04/18 10:39:21;;;;;;;13.70;8.75;;;;;;;;;;5025427;28;20155;-71
2023/04/18 10:42:06;;;;;;;13.95;8.55;;;;;;;;;;5028463;28;20044;-70
2023/04/18 10:45:10;;;;;;;13.48;9.55;;;;;;;;;;5028539;28;20030;-71
2023/04/18 10:48:14;;;;;;;12.35;9.15;;;;;;;;;;5040801;28;20033;-72
2023/04/18 10:51:13;;;;;;;11.63;7.97;;;;;;;;;;5014983;28;20061;-78
2023/04/18 10:53:59;;;;;;;11.88;7.72;;;;;;;;;;5043112;28;20025;-79
2023/04/18 10:56:52;;;;;;;12.60;8.02;;;;;;;;;;5024713;28;20022;-81
2023/04/18 10:59:38;;;;;;;13.10;7.78;;;;;;;;;;5027579;28;20076;-83
2023/04/18 11:02:25;;;;;;;13.73;8.57;;;;;;;;;;5014153;28;20021;-81
2023/04/18 11:05:10;;;;;;;11.95;8.15;;;;;;;;;;5022505;28;20033;-74
2023/04/18 11:07:55;;;;;;;11.95;8.18;;;;;;;;;;5041827;28;20497;-80
2023/04/18 11:10:40;;;;;;;11.07;7.63;;;;;;;;;;5029581;28;20061;-75
2023/04/18 11:13:26;;;;;;;10.32;7.18;;;;;;;;;;5046379;28;20013;-74
2023/04/18 11:16:24;;;;;;;11.35;7.68;;;;;;;;;;5015558;28;20041;-73
2023/04/18 11:19:19;;;;;;;11.02;7.07;;;;;;;;;;5024614;28;20072;-73
2023/04/18 11:22:04;;;;;;;11.60;7.07;;;;;;;;;;5024491;28;20478;-73
2023/04/18 11:24:50;;;;;;;11.98;6.50;;;;;;;;;;5023867;28;20068;-72
2023/04/18 11:27:35;;;;;;;10.73;7.00;;;;;;;;;;5025462;28;20026;-71
2023/04/18 11:30:20;;;;;;;10.85;6.38;;;;;;;;;;5030247;28;20434;-70
2023/04/18 11:33:07;;;;;;;10.95;6.70;;;;;;;;;;5027904;28;20029;-72
2023/04/18 11:35:55;;;;;;;10.57;6.97;;;;;;;;;;5026429;28;20017;-70
2023/04/18 11:38:40;;;;;;;9.55;5.57;;;;;;;;;;5026730;28;20387;-70
2023/04/18 11:41:26;;;;;;;8.88;5.95;;;;;;;;;;5026306;28;20033;-73
2023/04/18 11:44:11;;;;;;;9.45;6.55;;;;;;;;;;5024115;28;20509;-72
2023/04/18 11:46:56;;;;;;;10.35;6.30;;;;;;;;;;5028860;28;20086;-72
2023/04/18 11:49:42;;;;;;;11.13;6.03;;;;;;;;;;5029990;28;20076;-71
2023/04/18 11:52:28;;;;;;;8.48;5.43;;;;;;;;;;5030529;28;20058;-72
2023/04/18 11:55:20;;;;;;;20.02;6.10;;;;;;;;;;5027211;28;20021;-73
2023/04/18 11:58:06;;;;;;;8.68;6.03;;;;;;;;;;5031423;28;21871;-73
2023/04/18 12:00:51;;;;;;;11.57;7.28;;;;;;;;;;5008170;28;20029;-71
2023/04/18 12:03:36;;;;;;;8.23;5.40;;;;;;;;;;5041525;28;20052;-70
2023/04/18 12:06:21;;;;;;;10.00;5.47;;;;;;;;;;5024174;28;20434;-70
2023/04/18 12:09:06;;;;;;;10.85;6.95;;;;;;;;;;5030348;28;20025;-69
2023/04/18 12:12:10;;;;;;;12.50;6.40;;;;;;;;;;5047784;28;20070;-71
2023/04/18 12:14:59;;;;;;;9.02;5.38;;;;;;;;;;5021722;28;20116;-70
2023/04/18 12:17:45;;;;;;;9.77;5.57;;;;;;;;;;5039218;28;20052;-72
2023/04/18 12:20:35;;;;;;;10.98;6.50;;;;;;;;;;5025564;28;20154;-71
2023/04/18 12:23:28;;;;;;;12.10;6.63;;;;;;;;;;5028678;28;20546;-72
2023/04/18 12:26:17;;;;;;;11.27;6.78;;;;;;;;;;5032284;28;20704;-71
2023/04/18 12:29:02;;;;;;;10.85;6.28;;;;;;;;;;5044511;28;20076;-71
2023/04/18 12:31:47;;;;;;;10.95;7.03;;;;;;;;;;5020234;28;20034;-72
2023/04/18 12:34:32;;;;;;;12.57;7.03;;;;;;;;;;5035217;28;20591;-71
2023/04/18 12:37:24;;;;;;;10.55;7.00;;;;;;;;;;5039009;28;20020;-74
2023/04/18 12:40:09;;;;;;;8.30;5.45;;;;;;;;;;5026626;28;20471;-72
2023/04/18 12:42:55;;;;;;;11.70;5.32;;;;;;;;;;5025317;28;20094;-71
2023/04/18 12:45:40;;;;;;;9.55;6.10;;;;;;;;;;5028569;28;20388;-72
2023/04/18 12:48:25;;;;;;;9.45;5.35;;;;;;;;;;5025911;28;20027;-71
2023/04/18 12:51:10;;;;;;;8.77;5.07;;;;;;;;;;5024935;28;20036;-71
2023/04/18 12:53:56;;;;;;;12.05;6.32;;;;;;;;;;5038018;28;20075;-71
2023/04/18 12:56:41;;;;;;;11.30;5.20;;;;;;;;;;5021461;28;20554;-72
2023/04/18 12:59:26;;;;;;;7.22;4.57;;;;;;;;;;5028734;28;20030;-71
2023/04/18 13:02:12;;;;;;;8.25;5.22;;;;;;;;;;5015600;28;20522;-72
2023/04/18 13:04:57;;;;;;;9.20;5.57;;;;;;;;;;5036872;28;20033;-70
2023/04/18 13:07:43;;;;;;;8.05;4.72;;;;;;;;;;5023358;28;20060;-73
2023/04/18 13:10:28;;;;;;;7.75;4.20;;;;;;;;;;5021039;28;20030;-70
2023/04/18 13:13:13;;;;;;;6.55;4.43;;;;;;;;;;5043481;28;20100;-73
2023/04/18 13:15:59;;;;;;;10.38;4.40;;;;;;;;;;5013743;28;20030;-70
2023/04/18 13:18:44;;;;;;;8.20;4.70;;;;;;;;;;5039716;28;20022;-70
2023/04/18 13:21:30;;;;;;;8.25;5.20;;;;;;;;;;5042414;28;20063;-71
2023/04/18 13:24:15;;;;;;;8.32;4.88;;;;;;;;;;5040919;28;20141;-70
2023/04/18 13:27:02;;;;;;;6.38;4.55;;;;;;;;;;5022493;28;20444;-71
2023/04/18 13:29:47;;;;;;;8.80;4.72;;;;;;;;;;5026397;28;20033;-71
2023/04/18 13:32:32;;;;;;;8.10;4.75;;;;;;;;;;5027795;28;20025;-74
2023/04/18 13:35:17;;;;;;;6.40;3.95;;;;;;;;;;5040507;28;20061;-72
2023/04/18 13:38:02;;;;;;;7.40;4.10;;;;;;;;;;5024502;28;20041;-72
2023/04/18 13:40:48;;;;;;;5.90;3.47;;;;;;;;;;5031903;28;20568;-72
2023/04/18 13:43:33;;;;;;;6.47;3.67;;;;;;;;;;5034493;28;20510;-74
2023/04/18 13:46:18;;;;;;;4.45;3.20;;;;;;;;;;5011535;28;20052;-72
2023/04/18 13:49:03;;;;;;;5.80;3.85;;;;;;;;;;5032316;28;20128;-72
2023/04/18 13:51:52;;;;;;;6.40;3.80;;;;;;;;;;5038441;28;20052;-76
2023/04/18 13:54:37;;;;;;;5.88;3.58;;;;;;;;;;5033783;28;20090;-72
2023/04/18 13:57:22;;;;;;;8.20;4.20;;;;;;;;;;5017622;28;20030;-74
2023/04/18 14:00:08;;;;;;;4.97;3.50;;;;;;;;;;5022190;28;20033;-70
2023/04/18 14:02:54;;;;;;;5.68;3.60;;;;;;;;;;5028236;28;20500;-71
2023/04/18 14:05:39;;;;;;;8.48;4.30;;;;;;;;;;5041907;28;20043;-71
2023/04/18 14:08:24;;;;;;;7.50;4.15;;;;;;;;;;5036202;28;20498;-72
2023/04/18 14:11:09;;;;;;;8.30;5.15;;;;;;;;;;5038257;28;20044;-72
2023/04/18 14:13:55;;;;;;;7.20;4.20;;;;;;;;;;5020071;28;20100;-74
2023/04/18 14:16:40;;;;;;;7.57;4.72;;;;;;;;;;5021752;28;20025;-73
2023/04/18 14:19:25;;;;;;;6.43;3.95;;;;;;;;;;5024955;28;20033;-74
2023/04/18 14:22:11;;;;;;;6.70;3.75;;;;;;;;;;5035012;28;20033;-72
2023/04/18 14:24:56;;;;;;;7.03;4.05;;;;;;;;;;5041574;28;20180;-73
2023/04/18 14:27:45;;;;;;;6.60;3.47;;;;;;;;;;5028418;28;20039;-77
2023/04/18 14:30:31;;;;;;;8.02;4.35;;;;;;;;;;5036677;28;20040;-74
2023/04/18 14:33:16;;;;;;;8.57;4.30;;;;;;;;;;5048006;28;20032;-74
2023/04/18 14:36:01;;;;;;;8.82;4.85;;;;;;;;;;5024680;28;20128;-73
2023/04/18 14:38:49;;;;;;;7.20;4.63;;;;;;;;;;5019303;28;20473;-72
2023/04/18 14:41:35;;;;;;;8.77;4.65;;;;;;;;;;5026503;28;20037;-73
2023/04/18 14:44:20;;;;;;;5.93;3.85;;;;;;;;;;5019299;28;20029;-73
2023/04/18 14:47:05;;;;;;;8.88;4.80;;;;;;;;;;5028263;28;20041;-71
2023/04/18 14:49:50;;;;;;;6.38;3.80;;;;;;;;;;5025109;28;20044;-75
2023/04/18 14:52:36;;;;;;;6.53;4.18;;;;;;;;;;5039242;28;20036;-76
2023/04/18 14:55:21;;;;;;;7.18;4.10;;;;;;;;;;5035854;28;20029;-77
2023/04/18 14:58:07;;;;;;;7.65;4.40;;;;;;;;;;5030412;28;20116;-75
2023/04/18 15:00:52;;;;;;;6.75;4.50;;;;;;;;;;5032159;28;20117;-76
2023/04/18 15:03:39;;;;;;;7.18;4.00;;;;;;;;;;5016019;28;20111;-76
2023/04/18 15:06:25;;;;;;;7.30;3.90;;;;;;;;;;5021472;28;20080;-70
2023/04/18 15:09:12;;;;;;;6.68;4.13;;;;;;;;;;5023120;28;20038;-80
2023/04/18 15:11:58;;;;;;;7.38;3.72;;;;;;;;;;5043525;28;20063;-80
2023/04/18 15:14:44;;;;;;;4.82;3.50;;;;;;;;;;5013733;28;20427;-78
2023/04/18 15:17:29;;;;;;;4.72;3.28;;;;;;;;;;5017198;28;20029;-80
2023/04/18 15:20:15;;;;;;;5.75;4.00;;;;;;;;;;5021750;28;20546;-83
2023/04/18 15:23:00;;;;;;;5.45;3.42;;;;;;;;;;5029803;28;20044;-71
2023/04/18 15:25:46;;;;;;;6.25;3.47;;;;;;;;;;5029309;28;20045;-72
2023/04/18 15:28:31;;;;;;;3.92;2.65;;;;;;;;;;5036252;28;20037;-76
2023/04/18 15:31:16;;;;;;;5.65;3.10;;;;;;;;;;5031362;28;20095;-75
2023/04/18 15:34:01;;;;;;;4.45;2.92;;;;;;;;;;5040332;28;20445;-74
2023/04/18 15:36:50;;;;;;;4.10;3.05;;;;;;;;;;5030690;28;20028;-74
2023/04/18 15:39:35;;;;;;;5.40;3.10;;;;;;;;;;5046707;28;20025;-74
2023/04/18 15:42:20;;;;;;;4.63;3.10;;;;;;;;;;5043921;28;20441;-74
2023/04/18 15:45:06;;;;;;;4.20;3.00;;;;;;;;;;5032681;28;20063;-71
2023/04/18 15:47:52;;;;;;;4.18;2.78;;;;;;;;;;5017881;28;20056;-70
2023/04/18 15:50:37;;;;;;;4.38;3.05;;;;;;;;;;5033194;28;20392;-72
2023/04/18 15:53:22;;;;;;;3.83;3.30;;;;;;;;;;5049661;28;20040;-73
2023/04/18 15:56:08;;;;;;;6.38;3.20;;;;;;;;;;5036125;28;20061;-72
2023/04/18 15:58:55;;;;;;;4.38;3.53;;;;;;;;;;5041794;28;20095;-71
2023/04/18 16:01:41;;;;;;;5.57;3.75;;;;;;;;;;5038777;28;20029;-70
2023/04/18 16:04:26;;;;;;;6.55;3.95;;;;;;;;;;5046948;28;20033;-71
2023/04/18 16:07:11;;;;;;;6.93;3.90;;;;;;;;;;5032515;28;20043;-70
2023/04/18 16:09:56;;;;;;;7.03;4.00;;;;;;;;;;5045525;28;20036;-71
2023/04/18 16:12:42;;;;;;;5.43;3.78;;;;;;;;;;5040837;28;20037;-71
2023/04/18 16:15:29;;;;;;;5.70;3.47;;;;;;;;;;5014120;28;20034;-72
2023/04/18 16:18:14;;;;;;;6.43;3.63;;;;;;;;;;5029245;28;20044;-72
2023/04/18 16:20:59;;;;;;;5.20;3.45;;;;;;;;;;5016562;28;20065;-83
2023/04/18 16:23:44;;;;;;;8.35;4.35;;;;;;;;;;5045863;28;20112;-72